Wilmington, North Carolina
Current Conditions -  °F | °C
As of 9:53 AM on Monday 24 Nov 2014 (Local Time) from KILM Reporting Station
Overcast Overcast  
Wind Chill: 70°   Ceiling: 900
Heat Index: 70°   Visibility: 8mi
Dew Point: 69°   Wind: 7mph
Humidity: 97%   Direction: 210°SSW
Pressure: 29.89"   Gusts: NA
Location:  34.24°N, 77.94°W
Report Text: KILM 241453Z 21006KT 8SM OVC009 21/21 A2989 RMK AO2 SLP122 60003 T02110206 50012
Loading
Personal Weather Stations






























Interactive Weather Map New forecast layout! Learn more

10-Day Weather Forecast

Advertisements
Track Severe Weather on mobile